Etusivu
METAR-TAF:

METAR-TAF

Lentoasemat :

Talkeetna, Alaska, Yhdysvallat

Leveyspiiri: 62-19-14N, Pituuspiiri: 150-05-37W, korkeus merenpinnasta: 109 m

Tämänhetkinen sää

Tämä raportti tehtiin 37 minuuttia sitten, kello 02.53 UTC
tyyntä
Lämpötila -4°C
Kosteus 86%
Ilmanpaine 993 hPa
Näkyvyys: 16.1 km
selkeää

METAR: PATK 210253Z AUTO 00000KT 10SM CLR M04/M06 A2932 RMK AO2 SLP936 T10441061 55002 TSNO

Aika: 18:30 (03:30 UTC)

Sääennuste

Tämä raportti tehtiin 4 tuntia ja 3 minuuttia sitten, kello 23.27 UTC
Ennuste voimassa 21. päivästä klo 00 UTC - 21. päivään klo 24 UTC
Tuuli 6 kn pohjoisesta/koillisesta
Näkyvyys: 10 km
Hajanaisia pilviä 10000 ft:n korkeudessa

TAF: PATK 202327Z 2100/2124 02006KT P6SM SCT100

Säähavainnot ja -ennusteet yli 4000 lentoasemalta (METAR- ja TAF-raportit).

Käytössä olevat sääasemat on merkitty karttaan keltaisilla ja punaisilla pisteillä.

Aseta hiiri pisteen päälle nähdäksesi sääaseman nimen.

Klikkaa sitten nähdäksesi säähavainnot ja -ennusteet.

Kartan vaihtaminen: klikkaa mustalla rastilla varustettuja vihreitä pisteitä, niin voit zoomata sisään; viivalla varustettua vihreää pistettä, niin voit zoomata ulos tai vihreitä nuolia, niin pääset viereisille kartoille.


METAR-TAF: